createdAt,value
2019-04-22T00:00:44.922Z,11.8
2019-04-22T00:02:59.619Z,11.6
2019-04-22T00:05:29.120Z,11.3
2019-04-22T00:11:10.862Z,10.2
2019-04-22T00:14:11.488Z,10.7
2019-04-22T00:17:15.166Z,10.9
2019-04-22T00:22:37.895Z,10.8
2019-04-22T00:25:40.877Z,10.8
2019-04-22T00:28:49.508Z,11.2
2019-04-22T00:34:22.386Z,10.2
2019-04-22T00:39:57.107Z,10.2
2019-04-22T00:42:57.815Z,10.8
2019-04-22T00:46:00.924Z,10.5
2019-04-22T00:49:11.637Z,10.9
2019-04-22T00:52:27.918Z,11.1
2019-04-22T00:55:37.423Z,10.9
2019-04-22T01:00:37.400Z,10.3
2019-04-22T01:03:33.985Z,9.7
2019-04-22T01:06:30.450Z,10.6
2019-04-22T01:09:29.854Z,10.2
2019-04-22T01:12:25.942Z,10.5
2019-04-22T01:15:28.434Z,10.4
2019-04-22T01:18:15.504Z,10.6
2019-04-22T01:23:34.220Z,10.6
2019-04-22T01:26:09.292Z,9.9
2019-04-22T01:28:45.767Z,10.4
2019-04-22T01:31:07.375Z,10
2019-04-22T01:33:28.989Z,10.3
2019-04-22T01:36:07.698Z,10
2019-04-22T01:41:22.815Z,9.9
2019-04-22T01:46:56.378Z,10
2019-04-22T01:49:45.710Z,10.3
2019-04-22T01:52:36.506Z,9.7
2019-04-22T01:55:49.522Z,10
2019-04-22T01:58:37.923Z,10.4
2019-04-22T02:01:43.455Z,9.6
2019-04-22T02:06:55.515Z,10
2019-04-22T02:12:12.718Z,9.9
2019-04-22T02:17:54.553Z,9.6
2019-04-22T02:24:01.708Z,10.1
2019-04-22T02:27:00.062Z,9.8
2019-04-22T02:29:47.159Z,9.7
2019-04-22T02:37:54.138Z,9.4
2019-04-22T02:41:40.668Z,9.9
2019-04-22T02:44:52.658Z,9.5
2019-04-22T02:47:58.204Z,10.2
2019-04-22T02:51:16.149Z,10
2019-04-22T02:58:46.534Z,9.8
2019-04-22T03:01:52.997Z,10.1
2019-04-22T03:21:46.326Z,9.6
2019-04-22T03:25:13.874Z,10.4
2019-04-22T03:28:46.083Z,10.1
2019-04-22T03:35:09.364Z,9.9
2019-04-22T03:41:03.049Z,9.5
2019-04-22T03:44:38.174Z,10.1
2019-04-22T03:53:08.855Z,9.9
2019-04-22T03:58:00.984Z,10.1
2019-04-22T04:09:23.568Z,9.5
2019-04-22T04:30:59.429Z,9.7
2019-04-22T04:36:33.885Z,10.4
2019-04-22T04:54:58.612Z,9.5
2019-04-22T05:07:08.426Z,10.5
2019-04-22T05:13:10.002Z,9.3
2019-04-22T05:16:46.167Z,9.7
2019-04-22T05:19:56.461Z,9.4
2019-04-22T05:22:57.476Z,9.4
2019-04-22T05:26:03.843Z,9.7
2019-04-22T05:31:51.254Z,9.5
2019-04-22T05:39:35.487Z,9.6
2019-04-22T05:42:28.232Z,9.3
2019-04-22T05:45:31.014Z,9
2019-04-22T05:55:46.532Z,8.2
2019-04-22T06:06:28.594Z,7.8
2019-04-22T06:09:24.141Z,9.1
2019-04-22T06:12:12.026Z,7.8
2019-04-22T06:14:57.999Z,7.7
2019-04-22T06:26:18.790Z,7.9
2019-04-22T06:29:24.902Z,9.1
2019-04-22T06:32:39.347Z,8.8
2019-04-22T06:35:48.455Z,10.1
2019-04-22T06:38:39.011Z,8.8
2019-04-22T06:41:40.065Z,8.6
2019-04-22T06:44:51.405Z,8.9
2019-04-22T06:50:41.495Z,10.4
2019-04-22T06:53:47.143Z,8.8
2019-04-22T06:56:34.578Z,9.5
2019-04-22T06:59:31.002Z,9.8
2019-04-22T07:07:01.692Z,10.4
2019-04-22T07:14:34.959Z,9.3
2019-04-22T07:17:27.384Z,10.2
2019-04-22T07:26:44.699Z,8.5
2019-04-22T07:29:46.257Z,8.7
2019-04-22T07:36:05.981Z,8.7
2019-04-22T07:41:37.078Z,7.8
2019-04-22T07:44:38.291Z,8.2
2019-04-22T07:47:37.280Z,8.6
2019-04-22T07:50:55.480Z,8.3
2019-04-22T08:01:26.250Z,7.7
2019-04-22T08:04:34.269Z,6.7
2019-04-22T08:10:29.395Z,7.6
2019-04-22T08:13:30.232Z,6.8
2019-04-22T08:16:22.718Z,6.3
2019-04-22T08:19:26.402Z,7.3
2019-04-22T08:24:28.281Z,6.8
2019-04-22T08:37:47.215Z,7
2019-04-22T08:43:20.006Z,5.7
2019-04-22T08:48:49.305Z,5.9
2019-04-22T08:51:41.885Z,6.5
2019-04-22T08:56:48.986Z,6.4
2019-04-22T08:59:48.213Z,5.9
2019-04-22T09:05:36.644Z,6.2
2019-04-22T09:13:19.996Z,4.6
2019-04-22T09:16:37.132Z,5
2019-04-22T09:19:28.245Z,4.8
2019-04-22T09:22:26.055Z,5
2019-04-22T09:25:23.879Z,6.5
2019-04-22T09:28:07.060Z,4.4
2019-04-22T09:31:05.606Z,4.7
2019-04-22T09:36:33.566Z,4.6
2019-04-22T09:41:56.906Z,4.9
2019-04-22T09:47:06.051Z,5
2019-04-22T09:57:24.290Z,4.4
2019-04-22T10:00:37.238Z,4.5
2019-04-22T10:03:36.130Z,4.3
2019-04-22T10:06:36.519Z,5
2019-04-22T10:12:31.452Z,4.5
2019-04-22T10:15:32.125Z,5.2
2019-04-22T10:20:26.767Z,4.8
2019-04-22T10:23:31.153Z,4.6
2019-04-22T10:32:41.723Z,4.7
2019-04-22T10:35:02.995Z,5
2019-04-22T10:37:14.699Z,5.4
2019-04-22T10:39:18.422Z,5.2
2019-04-22T10:41:20.825Z,4.8
2019-04-22T10:43:23.367Z,5.6
2019-04-22T10:45:26.170Z,4.7
2019-04-22T10:47:28.075Z,4.9
2019-04-22T10:49:30.708Z,5
2019-04-22T10:51:32.819Z,4.8
2019-04-22T10:53:35.681Z,4.8
2019-04-22T10:55:41.417Z,4.4
2019-04-22T10:57:44.743Z,5.2
2019-04-22T10:59:46.960Z,4.7
2019-04-22T11:01:48.800Z,4.6
2019-04-22T11:03:51.190Z,4.9
2019-04-22T11:05:54.302Z,4.8
2019-04-22T11:08:04.655Z,4.6
2019-04-22T11:12:34.167Z,4.2
2019-04-22T11:14:41.775Z,4.2
2019-04-22T11:16:45.656Z,4.8
2019-04-22T11:18:47.765Z,4.3
2019-04-22T11:20:49.663Z,4.7
2019-04-22T11:22:51.153Z,4.1
2019-04-22T11:24:56.215Z,4.4
2019-04-22T11:26:58.939Z,4.3
2019-04-22T11:29:01.600Z,4.4
2019-04-22T11:31:03.003Z,4.1
2019-04-22T11:33:04.662Z,3.8
2019-04-22T11:35:06.059Z,4.1
2019-04-22T11:37:07.481Z,4
2019-04-22T11:39:13.131Z,4.1
2019-04-22T11:41:15.008Z,3.9
2019-04-22T11:43:16.766Z,4.2
2019-04-22T11:45:19.453Z,3.7
2019-04-22T11:47:21.550Z,4.5
2019-04-22T11:49:23.800Z,4
2019-04-22T11:51:25.132Z,4
2019-04-22T11:53:27.077Z,4.3
2019-04-22T11:55:28.936Z,3.8
2019-04-22T11:57:30.943Z,3.8
2019-04-22T11:59:33.145Z,3.8
2019-04-22T12:01:35.080Z,3.6
2019-04-22T12:03:38.075Z,3.8
2019-04-22T12:05:39.946Z,3.7
2019-04-22T12:07:42.450Z,3.6
2019-04-22T12:09:43.868Z,4
2019-04-22T12:11:46.972Z,3.7
2019-04-22T12:13:48.430Z,3.6
2019-04-22T12:15:51.228Z,3.5
2019-04-22T12:17:53.170Z,3.2
2019-04-22T12:19:55.895Z,3.8
2019-04-22T12:21:57.385Z,3.2
2019-04-22T12:23:59.271Z,3.4
2019-04-22T12:26:11.294Z,3.5
2019-04-22T12:28:15.334Z,3.4
2019-04-22T12:30:16.886Z,3.9
2019-04-22T12:32:18.291Z,3.3
2019-04-22T12:34:19.757Z,3.2
2019-04-22T12:36:22.669Z,3.4
2019-04-22T12:38:24.199Z,3.5
2019-04-22T12:40:42.320Z,3.3
2019-04-22T12:42:47.283Z,3
2019-04-22T12:44:51.200Z,3.3
2019-04-22T12:46:52.566Z,3
2019-04-22T12:48:54.035Z,3.3
2019-04-22T12:50:58.569Z,3.3
2019-04-22T12:53:09.190Z,3.1
2019-04-22T12:55:14.318Z,3
2019-04-22T12:57:16.910Z,3.1
2019-04-22T12:59:19.494Z,2.9
2019-04-22T13:01:21.364Z,2.7
2019-04-22T13:03:24.099Z,2.8
2019-04-22T13:05:27.003Z,2.8
2019-04-22T13:07:29.651Z,2.9
2019-04-22T13:09:31.665Z,2.9
2019-04-22T13:11:36.949Z,2.9
2019-04-22T13:13:41.008Z,3.2
2019-04-22T13:15:42.353Z,2.7
2019-04-22T13:17:44.444Z,3
2019-04-22T13:19:45.792Z,2.8
2019-04-22T13:21:47.255Z,2.5
2019-04-22T13:23:48.989Z,2.6
2019-04-22T13:25:50.331Z,2.6
2019-04-22T13:27:53.405Z,2.5
2019-04-22T13:29:55.284Z,2.5
2019-04-22T13:31:56.717Z,2.5
2019-04-22T13:34:03.931Z,2.7
2019-04-22T13:36:06.134Z,2.6
2019-04-22T13:38:09.153Z,2.6
2019-04-22T13:40:11.058Z,2.5
2019-04-22T13:46:16.933Z,2.5
2019-04-22T13:51:44.818Z,2.3
2019-04-22T13:59:01.653Z,2.4
2019-04-22T14:01:04.997Z,2.2
2019-04-22T14:03:06.936Z,2.5
2019-04-22T14:05:08.772Z,2.7
2019-04-22T14:07:10.731Z,2.3
2019-04-22T14:09:13.788Z,2.7
2019-04-22T14:11:36.491Z,2.5
2019-04-22T14:13:41.980Z,2.8
2019-04-22T14:15:44.001Z,2.8
2019-04-22T14:17:45.503Z,2.1
2019-04-22T14:19:46.900Z,2.4
2019-04-22T14:21:49.727Z,2.3
2019-04-22T14:23:51.138Z,2.6
2019-04-22T14:25:52.955Z,2.6
2019-04-22T14:32:15.397Z,2.3
2019-04-22T14:36:15.308Z,2.5
2019-04-22T14:38:17.931Z,2.5
2019-04-22T14:40:22.865Z,2.3
2019-04-22T14:43:00.426Z,2.6
2019-04-22T14:48:45.620Z,2.6
2019-04-22T14:51:20.348Z,2.6
2019-04-22T14:54:00.717Z,2.9
2019-04-22T14:56:06.398Z,2.8
2019-04-22T14:58:09.327Z,3.2
2019-04-22T15:00:13.355Z,3.1
2019-04-22T15:02:16.166Z,3
2019-04-22T15:04:17.631Z,3
2019-04-22T15:06:20.236Z,3.3
2019-04-22T15:08:21.650Z,3.2
2019-04-22T15:10:24.382Z,3.4
2019-04-22T15:12:41.709Z,3.5
2019-04-22T15:14:45.866Z,3.5
2019-04-22T15:16:47.255Z,3.2
2019-04-22T15:18:49.693Z,3.2
2019-04-22T15:20:54.238Z,3.2
2019-04-22T15:22:56.759Z,3.3
2019-04-22T15:24:58.683Z,3
2019-04-22T15:27:02.334Z,3.3
2019-04-22T15:29:05.288Z,3.2
2019-04-22T15:31:06.644Z,3.4
2019-04-22T15:33:09.790Z,3.4
2019-04-22T15:35:11.562Z,3.2
2019-04-22T15:37:14.073Z,3.4
2019-04-22T15:39:15.677Z,3.5
2019-04-22T15:41:17.033Z,3.5
2019-04-22T15:43:18.445Z,3.2
2019-04-22T15:45:23.497Z,3.7
2019-04-22T15:47:25.272Z,4.1
2019-04-22T15:49:27.958Z,3.7
2019-04-22T15:51:29.604Z,3.8
2019-04-22T15:53:33.906Z,3.5
2019-04-22T15:55:36.886Z,3.9
2019-04-22T15:57:39.945Z,4.3
2019-04-22T16:00:10.425Z,3.7
2019-04-22T16:02:16.142Z,3.9
2019-04-22T16:04:18.958Z,3.9
2019-04-22T16:06:22.020Z,3.8
2019-04-22T16:08:24.849Z,3.7
2019-04-22T16:10:26.316Z,3.7
2019-04-22T16:12:41.255Z,3.4
2019-04-22T16:14:54.890Z,3.5
2019-04-22T16:16:59.010Z,3.5
2019-04-22T16:19:00.773Z,3.3
2019-04-22T16:21:02.978Z,3.1
2019-04-22T16:23:05.682Z,3.3
2019-04-22T16:25:07.163Z,3.2
2019-04-22T16:27:08.914Z,3.5
2019-04-22T16:29:11.779Z,3.4
2019-04-22T16:31:13.663Z,3.3
2019-04-22T16:33:15.551Z,3.2
2019-04-22T16:35:17.000Z,2.9
2019-04-22T16:37:19.027Z,2.9
2019-04-22T16:39:20.857Z,2.9
2019-04-22T16:41:22.241Z,3.4
2019-04-22T16:43:24.876Z,3.4
2019-04-22T16:45:27.429Z,2.9
2019-04-22T16:47:28.827Z,3.6
2019-04-22T16:49:32.147Z,3.4
2019-04-22T16:51:33.940Z,3.3
2019-04-22T16:53:37.123Z,3.1
2019-04-22T16:55:39.233Z,3.5
2019-04-22T16:57:42.215Z,3.2
2019-04-22T16:59:44.825Z,3.1
2019-04-22T17:01:46.401Z,3.2
2019-04-22T17:03:48.911Z,3.3
2019-04-22T17:05:51.911Z,3.7
2019-04-22T17:07:54.352Z,3.2
2019-04-22T17:09:55.741Z,3.1
2019-04-22T17:11:58.167Z,3.2
2019-04-22T17:13:59.536Z,3.3
2019-04-22T17:16:02.435Z,3
2019-04-22T17:18:05.560Z,3
2019-04-22T17:20:07.448Z,3
2019-04-22T17:22:08.871Z,3.5
2019-04-22T17:24:12.061Z,3.1
2019-04-22T17:26:14.921Z,3.3
2019-04-22T17:28:17.617Z,3
2019-04-22T17:30:20.256Z,3.2
2019-04-22T17:32:26.912Z,3
2019-04-22T17:34:29.743Z,3.1
2019-04-22T17:36:32.004Z,2.6
2019-04-22T17:38:54.923Z,2.8
2019-04-22T17:41:24.108Z,3
2019-04-22T17:44:30.440Z,2.9
2019-04-22T17:47:01.218Z,2.7
2019-04-22T17:54:55.944Z,2.6
2019-04-22T17:57:40.494Z,2.7
2019-04-22T18:00:24.887Z,2.9
2019-04-22T18:03:00.375Z,2.3
2019-04-22T18:05:11.424Z,2.5
2019-04-22T18:07:54.302Z,2.5
2019-04-22T18:10:53.807Z,2.5
2019-04-22T18:13:51.325Z,2.4
2019-04-22T18:16:45.384Z,2.4
2019-04-22T18:19:31.401Z,2.7
2019-04-22T18:22:01.994Z,2.4
2019-04-22T18:24:27.993Z,2.3
2019-04-22T18:29:42.727Z,2.3
2019-04-22T18:32:09.772Z,2.3
2019-04-22T18:34:39.719Z,2
2019-04-22T18:37:16.281Z,2.3
2019-04-22T18:40:07.747Z,2.2
2019-04-22T18:43:03.251Z,2
2019-04-22T18:45:59.597Z,2.3
2019-04-22T18:51:28.633Z,2.4
2019-04-22T18:54:17.864Z,2.2
2019-04-22T18:57:07.351Z,2.1
2019-04-22T18:59:26.171Z,2
2019-04-22T19:01:30.193Z,2.1
2019-04-22T19:03:49.607Z,2.1
2019-04-22T19:11:14.934Z,2
2019-04-22T19:14:23.955Z,2.1
2019-04-22T19:22:29.417Z,2.3
2019-04-22T19:27:45.056Z,2.3
2019-04-22T19:35:22.134Z,2.5
2019-04-22T19:37:59.663Z,2.1
2019-04-22T19:45:39.716Z,2.1
2019-04-22T19:55:59.585Z,1.9
2019-04-22T19:58:37.091Z,2
2019-04-22T20:04:03.220Z,2.1
2019-04-22T20:06:47.050Z,2.2
2019-04-22T20:09:43.355Z,2
2019-04-22T20:12:30.347Z,2.3
2019-04-22T20:15:04.905Z,2.1
2019-04-22T20:18:21.612Z,2.2
2019-04-22T20:23:14.124Z,2
2019-04-22T20:25:55.931Z,2
2019-04-22T20:28:46.201Z,2.3
2019-04-22T20:34:37.819Z,2.2
2019-04-22T20:37:38.272Z,2.2
2019-04-22T20:40:10.109Z,2.3
2019-04-22T20:43:14.761Z,2.1
2019-04-22T20:48:22.687Z,2.1
2019-04-22T20:51:30.847Z,2.6
2019-04-22T20:54:15.636Z,2.1
2019-04-22T20:57:00.625Z,2.3
2019-04-22T20:59:44.119Z,2.2
2019-04-22T21:02:23.402Z,2.3
2019-04-22T21:04:51.961Z,2.5
2019-04-22T21:07:30.900Z,2.4
2019-04-22T21:10:11.310Z,1.9
2019-04-22T21:12:40.758Z,2.4
2019-04-22T21:17:55.171Z,2.5
2019-04-22T21:20:56.021Z,2.2
2019-04-22T21:23:30.665Z,2.2
2019-04-22T21:26:12.822Z,2.6
2019-04-22T21:28:57.944Z,2.5
2019-04-22T21:31:51.012Z,2.5
2019-04-22T21:34:23.050Z,2.9
2019-04-22T21:37:07.400Z,2.5
2019-04-22T21:39:41.877Z,2.6
2019-04-22T21:44:47.580Z,2.8
2019-04-22T21:49:29.337Z,3
2019-04-22T21:52:16.745Z,2.7
2019-04-22T21:55:10.028Z,3.3
2019-04-22T21:57:57.036Z,2.8
2019-04-22T22:00:57.608Z,2.6
2019-04-22T22:04:00.057Z,2.8
2019-04-22T22:06:34.553Z,3.3
2019-04-22T22:09:20.162Z,2.8
2019-04-22T22:14:07.374Z,3.1
2019-04-22T22:16:38.207Z,3
2019-04-22T22:19:28.020Z,2.8
2019-04-22T22:25:01.030Z,2.9
2019-04-22T22:27:47.333Z,2.8
2019-04-22T22:32:40.017Z,2.9
2019-04-22T22:35:20.313Z,3.3
2019-04-22T22:38:02.595Z,3.4
2019-04-22T22:40:21.513Z,3
2019-04-22T22:42:40.372Z,2.9
2019-04-22T22:45:00.435Z,3.3
2019-04-22T22:47:44.023Z,3.3
2019-04-22T22:50:29.845Z,3.2
2019-04-22T22:56:10.316Z,3
2019-04-22T22:59:02.597Z,3
2019-04-22T23:04:39.240Z,3.7
2019-04-22T23:07:34.493Z,3.4
2019-04-22T23:10:28.994Z,3.2
2019-04-22T23:13:29.587Z,3.7
2019-04-22T23:16:00.372Z,3.2
2019-04-22T23:18:03.876Z,3.2
2019-04-22T23:20:07.265Z,3.3
2019-04-22T23:22:28.230Z,3.9
2019-04-22T23:25:15.858Z,3.2
2019-04-22T23:28:01.134Z,3.7
2019-04-22T23:30:29.643Z,3.2
2019-04-22T23:33:03.172Z,3.4
2019-04-22T23:35:46.499Z,3.6
2019-04-22T23:38:23.911Z,3.6
